Portada
METAR-TAF:

METAR-TAF

Aeroports :

Gaya, Índia

latitud: 24-44-40N, longitud: 84-57-04E, altitud: 116 m

Observació

L'informe es va fer fa 1 hora i 4 minuts, a les 19:00 UTC
Vent 3 kt del Est
Temperatura 17°C
Humitat 82%
Pressió 1016 hPa
Visibilitat: 1600 m
boirina

METAR: VEGY 131900Z 09003KT 1600 BR NSC 17/14 Q1016

Hora: 01:34 (20:04 UTC)

Pronòstic

L'informe es va fer fa 6 hores i 4 minuts, a les 14:00 UTC
Pronòstic vàlid del 13 a les 15 UTC al 13 a les 24 UTC
Vent kt del Nord
Visibilitat: 2000 m
calitja
Evolucionant progressivament
l' 13 a les 20 UTC al 13 a les 22 UTC
Visibilitat: 1500 m
Escasses núvols a una alçada de 10000 ft
Boira superficial, boirina

TAF: VEGY 131400Z 1315/1324 00000KT 2000 HZ NSC BECMG 1320/1322 1500 MIFG BR FEW100

Observacions i pronòstics meteorològics de més de 4000 aeroports (METAR i TAF).

Les estacions disponibles són els punts grocs i vermells al mapa.

Posi el ratolí al punt desitjat per veure el nom de l'estació.

Feu clic per veure les observacions i els pronòstics meteorològics.

Per canviar el mapa: feu clic els botons verds amb una creu de color negre per apropar; al botó verd amb un guió per allunyar la imatge; o en les fletxes verdes per a mapes adjacents.


METAR-TAF: